Ventania, Brazil
Current Conditions -  °F | °C
As of 12:00 PM on Wednesday 28 Jan 2015 (Local Time) from SBLO Reporting Station
Overcast Overcast  
Wind Chill: 75°   Ceiling: 800
Heat Index: 75°   Visibility: 6mi
Dew Point: 73°   Wind: 6mph
Humidity: 94%   Direction: 80°E
Pressure: 30.03"   Gusts: NA
Location:  24.25°S, 50.25°W
Report Text: SBLO 281400Z 08005KT 9999 SCT005 BKN008 OVC012 24/23 Q1017
Loading
Personal Weather Stations






























Interactive Weather Map New forecast layout! Learn more

10-Day Weather Forecast

Advertisements
Track Severe Weather on mobile